Atlantic - Newfoundland: Past 24 Hour Conditions

 

St.Paul Island

11:00 AM ADT 25 October 2014
This table is a summary of hourly weather conditions for the past 24 hours.
Date / Time
(ADT)
Wind(knots) Conditions Visibility(km) Pressure(kPa) Air tempC) Relative humidity(%) Dew pointC)
25 October 2014
11:00 ENE 19 N/A N/A 99.5 9 100 9
10:00 E 18 N/A N/A 99.5 9 100 9
9:00 E 17 gust 23 N/A N/A 99.5 9 100 9
8:00 E 17 gust 22 N/A N/A 99.4 9 100 9
7:00 E 14 gust 23 N/A N/A 99.4 10 100 10
6:00 ENE 22 gust 30 N/A N/A 99.3 10 100 10
5:00 ENE 23 N/A N/A 99.3 10 100 10
4:00 ENE 20 N/A N/A 99.3 10 100 10
3:00 E 19 gust 25 N/A N/A 99.4 10 N/A N/A
2:00 E 20 gust 25 N/A N/A 99.5 10 N/A N/A
1:00 E 18 gust 24 N/A N/A 99.5 10 N/A N/A
0:00 E 17 N/A N/A 99.6 10 100 10
24 October 2014
23:00 E 20 N/A N/A 99.7 10 100 10
22:00 E 18 gust 23 N/A N/A 99.7 11 100 11
21:00 E 17 gust 30 N/A N/A 99.8 11 100 11
20:00 N/A N/A N/A N/A N/A N/A N/A
19:00 E 23 gust 30 N/A N/A 99.8 11 100 11
18:00 E 21 N/A N/A 99.9 11 100 11
17:00 E 21 gust 26 N/A N/A 100.0 11 100 11
16:00 E 26 gust 32 N/A N/A 100.0 11 100 11
15:00 E 27 gust 34 N/A N/A 100.1 11 100 11
14:00 E 29 gust 36 N/A N/A 100.1 11 100 11
13:00 E 25 gust 32 N/A N/A 100.3 11 100 11
12:00 E 27 gust 33 N/A N/A 100.4 10 100 10
11:00 E 26 gust 32 N/A N/A 100.4 10 100 10
 
Map of Atlantic - Newfoundland marine weather areas Southwestern Grand Banks - 44138 Banquereau - 44139 Tail of the Bank - 44140 Nickerson Bank - 44251 Northeast Burgeo Bank - 44255 Blanc-Sablon Airport Cap Whittle Chevery Natashquan Airport Heath Point Miscou Island Grand Étang Ingonish Beach North Mountain St.Paul Island J.A. Douglas McCurdy Sydney Airport Charlottetown Airport East Point North Cape Argentia Bonavista Burgeo Cape Race Corner Brook Daniel's Harbour Englee Ferolle Point La Scie Port aux Basques Rocky Harbour Sagona Island St. Anthony Airport St. John's Int'l Airport St. Lawrence Stephenville Airport Twillingate Winterland Wreckhouse Cartwright Airport Mary's Harbour Grates Cove Pool's Island Marticot Island Long Pond Îles de la Madeleine Airport
Legend: buoyBuoy land stationLand Station